VLC weather

Valencia Airport
Valencia, Valencia, Spain

Public forecast

Using degrees Celsius for public forecast. Weather courtesy of forecast.io.

Current aviation weather report (METAR) for Valencia Airport

Retrieved 2019/10/22 13:30 UTC (0 seconds ago):

LEVC 221330Z 28011KT 9999 -RA FEW020 BKN040 14/11 Q1008 NOSIG

Aviation forecast (TAF) for Valencia Airport

Retrieved 2019/10/22 12:27 UTC (38 minutes ago):

TAF LEVC 221100Z 2212/2312 29007KT 9999 SCT025 TX16/2212Z TN10/2306Z TEMPO 2212/2218 4000 SHRA FEW025TCU BKN030 TEMPO 2212/2215 28012KT